TimeCDT,TemperatureF,Dew PointF,Humidity,Sea Level PressureIn,VisibilityMPH,Wind Direction,Wind SpeedMPH,Gust SpeedMPH,PrecipitationIn,Events,Conditions,WindDirDegrees,DateUTC
12:53 AM,57.0,52.0,83,30.04,10.0,NE,3.5,-,N/A,,Clear,50,2013-09-03 05:53:00
1:53 AM,51.1,48.9,92,30.05,10.0,NE,3.5,-,N/A,,Clear,50,2013-09-03 06:53:00
2:53 AM,48.0,46.9,96,30.05,10.0,Calm,Calm,-,N/A,,Clear,0,2013-09-03 07:53:00
3:42 AM,46.4,46.4,100,30.06,1.5,Calm,Calm,-,N/A,,Clear,0,2013-09-03 08:42:00
3:53 AM,46.9,46.9,100,30.06,0.2,Calm,Calm,-,N/A,Fog,Fog,0,2013-09-03 08:53:00
4:21 AM,46.4,44.6,93,30.07,0.5,WNW,4.6,-,N/A,Fog,Fog,290,2013-09-03 09:21:00
4:28 AM,46.4,44.6,93,30.07,1.5,WNW,4.6,-,N/A,,Partly Cloudy,300,2013-09-03 09:28:00
4:32 AM,44.6,44.6,100,30.07,3.0,WNW,3.5,-,N/A,,Partly Cloudy,300,2013-09-03 09:32:00
4:40 AM,46.4,46.4,100,30.07,2.5,NW,3.5,-,N/A,,Partly Cloudy,310,2013-09-03 09:40:00
4:46 AM,48.2,48.2,100,30.07,1.0,NW,3.5,-,N/A,,Mist,310,2013-09-03 09:46:00
4:50 AM,46.4,46.4,100,30.07,0.2,WNW,4.6,-,N/A,Fog,Fog,300,2013-09-03 09:50:00
4:53 AM,46.0,46.0,100,30.06,0.2,NW,4.6,-,N/A,Fog,Fog,310,2013-09-03 09:53:00
5:11 AM,48.2,48.2,100,30.08,1.0,NNW,3.5,-,N/A,,Mist,330,2013-09-03 10:11:00
5:13 AM,50.0,48.2,94,30.08,3.0,Calm,Calm,-,N/A,,Scattered Clouds,0,2013-09-03 10:13:00
5:24 AM,48.2,48.2,100,30.08,1.8,North,4.6,-,N/A,,Scattered Clouds,350,2013-09-03 10:24:00
5:41 AM,48.2,48.2,100,30.09,1.2,North,6.9,-,N/A,,Mostly Cloudy,360,2013-09-03 10:41:00
5:45 AM,48.2,48.2,100,30.09,3.0,North,6.9,-,N/A,,Mostly Cloudy,360,2013-09-03 10:45:00
5:53 AM,48.9,48.0,97,30.08,6.0,North,5.8,-,N/A,,Mostly Cloudy,360,2013-09-03 10:53:00
6:16 AM,48.2,46.4,93,30.10,10.0,North,5.8,-,N/A,,Partly Cloudy,360,2013-09-03 11:16:00
6:53 AM,48.0,46.9,96,30.10,9.0,North,3.5,-,N/A,,Clear,350,2013-09-03 11:53:00
7:53 AM,52.0,51.1,97,30.12,10.0,Calm,Calm,-,N/A,,Clear,0,2013-09-03 12:53:00
8:53 AM,59.0,53.1,81,30.11,10.0,NNE,3.5,-,N/A,,Clear,30,2013-09-03 13:53:00
9:53 AM,62.1,54.0,75,30.11,10.0,Calm,Calm,-,N/A,,Clear,0,2013-09-03 14:53:00
10:53 AM,66.0,54.0,65,30.12,10.0,Variable,3.5,-,N/A,,Clear,0,2013-09-03 15:53:00
11:53 AM,69.1,54.0,58,30.11,10.0,Variable,4.6,-,N/A,,Clear,0,2013-09-03 16:53:00
12:53 PM,73.0,53.1,49,30.10,10.0,NNE,3.5,-,N/A,,Clear,30,2013-09-03 17:53:00
1:53 PM,75.0,53.1,46,30.08,10.0,Variable,3.5,-,N/A,,Clear,0,2013-09-03 18:53:00
2:53 PM,78.1,51.1,39,30.06,10.0,Variable,4.6,-,N/A,,Clear,0,2013-09-03 19:53:00
3:53 PM,78.1,51.1,39,30.04,10.0,Variable,6.9,-,N/A,,Clear,0,2013-09-03 20:53:00
4:53 PM,80.1,51.1,36,30.02,10.0,Calm,Calm,-,N/A,,Clear,0,2013-09-03 21:53:00
5:53 PM,79.0,48.9,35,30.03,10.0,NNE,6.9,-,N/A,,Clear,20,2013-09-03 22:53:00
6:53 PM,75.9,50.0,40,30.03,10.0,Calm,Calm,-,N/A,,Clear,0,2013-09-03 23:53:00
7:53 PM,66.9,48.9,52,30.04,10.0,Calm,Calm,-,N/A,,Clear,0,2013-09-04 00:53:00
8:53 PM,61.0,52.0,72,30.04,10.0,Calm,Calm,-,N/A,,Clear,0,2013-09-04 01:53:00
9:53 PM,59.0,53.1,81,30.05,10.0,SE,3.5,-,N/A,,Clear,130,2013-09-04 02:53:00
10:53 PM,60.1,52.0,75,30.06,10.0,Calm,Calm,-,N/A,,Clear,0,2013-09-04 03:53:00
11:53 PM,61.0,51.1,70,30.05,10.0,Calm,Calm,-,N/A,,Clear,0,2013-09-04 04:53:00